createdAt,value
2019-03-17T00:00:10.359Z,78.33
2019-03-17T00:02:39.100Z,78.85
2019-03-17T00:05:07.854Z,78.50
2019-03-17T00:07:36.352Z,78.84
2019-03-17T00:10:06.596Z,78.39
2019-03-17T00:12:35.078Z,78.89
2019-03-17T00:15:07.419Z,78.21
2019-03-17T00:17:36.038Z,78.66
2019-03-17T00:20:06.025Z,78.07
2019-03-17T00:22:34.541Z,78.33
2019-03-17T00:25:09.075Z,77.79
2019-03-17T00:27:33.409Z,77.40
2019-03-17T00:30:01.920Z,78.26
2019-03-17T00:32:32.645Z,77.70
2019-03-17T00:35:01.149Z,78.13
2019-03-17T00:37:29.594Z,77.78
2019-03-17T00:39:58.089Z,78.20
2019-03-17T00:42:26.572Z,77.36
2019-03-17T00:44:55.106Z,77.39
2019-03-17T00:47:26.383Z,78.24
2019-03-17T00:49:56.377Z,78.07
2019-03-17T00:52:24.855Z,77.55
2019-03-17T00:54:53.315Z,77.87
2019-03-17T00:57:21.785Z,77.86
2019-03-17T00:59:50.271Z,77.38
2019-03-17T01:02:18.741Z,77.05
2019-03-17T01:04:55.822Z,77.56
2019-03-17T01:07:17.413Z,77.05
2019-03-17T01:09:46.415Z,77.62
2019-03-17T01:12:16.551Z,77.16
2019-03-17T01:14:45.011Z,77.27
2019-03-17T01:17:13.465Z,77.00
2019-03-17T01:19:42.065Z,76.45
2019-03-17T01:22:10.611Z,76.45
2019-03-17T01:24:39.243Z,76.77
2019-03-17T01:27:09.379Z,76.54
2019-03-17T01:29:38.202Z,76.29
2019-03-17T01:32:06.647Z,76.25
2019-03-17T01:34:37.535Z,76.74
2019-03-17T01:37:06.005Z,76.57
2019-03-17T01:39:34.623Z,77.14
2019-03-17T01:42:04.435Z,77.49
2019-03-17T01:44:32.942Z,77.06
2019-03-17T01:47:01.424Z,77.03
2019-03-17T01:49:29.892Z,77.27
2019-03-17T01:51:59.965Z,77.32
2019-03-17T01:54:28.535Z,77.51
2019-03-17T01:56:56.999Z,77.15
2019-03-17T01:59:25.554Z,77.51
2019-03-17T02:01:54.279Z,77.72
2019-03-17T02:04:22.781Z,77.51
2019-03-17T02:06:51.316Z,77.55
2019-03-17T02:09:19.793Z,77.58
2019-03-17T02:11:48.430Z,77.54
2019-03-17T02:14:17.922Z,77.29
2019-03-17T02:16:54.227Z,77.21
2019-03-17T02:19:22.784Z,77.58
2019-03-17T02:21:51.265Z,77.71
2019-03-17T02:24:19.724Z,77.04
2019-03-17T02:26:48.228Z,77.42
2019-03-17T02:29:16.688Z,77.21
2019-03-17T02:31:45.242Z,76.46
2019-03-17T02:34:13.818Z,77.22
2019-03-17T02:36:42.365Z,77.54
2019-03-17T02:39:10.830Z,77.10
2019-03-17T02:41:39.377Z,76.85
2019-03-17T02:44:08.307Z,76.95
2019-03-17T02:46:36.799Z,77.31
2019-03-17T02:49:05.465Z,77.42
2019-03-17T02:51:33.974Z,76.90
2019-03-17T02:54:02.491Z,76.84
2019-03-17T02:56:31.001Z,77.19
2019-03-17T02:59:02.247Z,76.98
2019-03-17T03:01:32.436Z,76.84
2019-03-17T03:04:03.732Z,77.09
2019-03-17T03:06:32.256Z,76.14
2019-03-17T03:09:00.720Z,76.67
2019-03-17T03:11:29.557Z,76.52
2019-03-17T03:13:58.041Z,76.36
2019-03-17T03:16:26.542Z,75.65
2019-03-17T03:18:55.200Z,77.12
2019-03-17T03:21:23.685Z,76.66
2019-03-17T03:23:52.171Z,76.57
2019-03-17T03:26:22.612Z,76.20
2019-03-17T03:28:50.986Z,75.89
2019-03-17T03:31:19.456Z,75.92
2019-03-17T03:33:48.190Z,76.16
2019-03-17T03:36:20.748Z,75.25
2019-03-17T03:38:49.254Z,75.93
2019-03-17T03:41:17.719Z,75.86
2019-03-17T03:43:46.265Z,75.47
2019-03-17T03:46:15.170Z,76.50
2019-03-17T03:48:43.781Z,76.05
2019-03-17T03:51:12.340Z,76.06
2019-03-17T03:53:40.798Z,75.34
2019-03-17T03:56:09.282Z,74.40
2019-03-17T03:58:37.759Z,75.04
2019-03-17T04:01:06.241Z,75.24
2019-03-17T04:03:37.667Z,74.97
2019-03-17T04:06:06.181Z,74.49
2019-03-17T04:08:34.756Z,75.27
2019-03-17T04:11:03.192Z,74.61
2019-03-17T04:13:31.684Z,74.16
2019-03-17T04:16:01.735Z,74.40
2019-03-17T04:18:30.213Z,74.72
2019-03-17T04:20:58.800Z,75.12
2019-03-17T04:23:27.327Z,74.29
2019-03-17T04:25:55.832Z,74.58
2019-03-17T04:28:24.361Z,74.11
2019-03-17T04:30:52.828Z,74.22
2019-03-17T04:33:21.354Z,73.30
2019-03-17T04:35:50.156Z,74.22
2019-03-17T04:38:18.704Z,74.28
2019-03-17T04:40:47.155Z,74.49
2019-03-17T04:43:15.634Z,74.04
2019-03-17T04:45:44.562Z,74.18
2019-03-17T04:48:13.039Z,74.06
2019-03-17T04:50:43.034Z,74.49
2019-03-17T04:53:11.516Z,73.34
2019-03-17T04:55:42.657Z,73.61
2019-03-17T04:58:15.797Z,73.12
2019-03-17T05:00:44.273Z,73.56
2019-03-17T05:03:12.731Z,72.62
2019-03-17T05:05:41.201Z,73.05
2019-03-17T05:08:09.689Z,72.52
2019-03-17T05:10:38.157Z,72.87
2019-03-17T05:13:12.252Z,73.73
2019-03-17T05:15:41.257Z,72.68
2019-03-17T05:18:09.749Z,72.28
2019-03-17T05:20:41.103Z,72.59
2019-03-17T05:23:09.577Z,71.72
2019-03-17T05:25:40.781Z,72.46
2019-03-17T05:28:09.295Z,72.33
2019-03-17T05:30:37.765Z,72.63
2019-03-17T05:33:06.251Z,72.46
2019-03-17T05:35:34.717Z,72.56
2019-03-17T05:38:03.202Z,72.47
2019-03-17T05:40:31.829Z,73.24
2019-03-17T05:43:02.149Z,73.54
2019-03-17T05:45:30.577Z,73.90
2019-03-17T05:47:59.102Z,75.21
2019-03-17T05:50:27.579Z,76.02
2019-03-17T05:52:56.148Z,77.51
2019-03-17T05:55:24.679Z,79.07
2019-03-17T05:57:55.936Z,80.15
2019-03-17T06:00:24.453Z,80.86
2019-03-17T06:02:52.949Z,81.64
2019-03-17T06:05:21.601Z,82.36
2019-03-17T06:07:50.068Z,82.99
2019-03-17T06:10:18.640Z,82.33
2019-03-17T06:12:47.121Z,83.26
2019-03-17T06:15:15.830Z,83.71
2019-03-17T06:17:44.382Z,83.81
2019-03-17T06:20:13.315Z,84.59
2019-03-17T06:22:41.796Z,84.80
2019-03-17T06:25:11.140Z,84.88
2019-03-17T06:27:39.628Z,84.71
2019-03-17T06:30:13.053Z,85.44
2019-03-17T06:32:41.523Z,85.17
2019-03-17T06:35:10.206Z,85.56
2019-03-17T06:37:38.680Z,86.00
2019-03-17T06:40:14.117Z,85.64
2019-03-17T06:42:42.762Z,85.91
2019-03-17T06:45:11.695Z,86.11
2019-03-17T06:47:40.178Z,85.07
2019-03-17T06:50:18.090Z,84.50
2019-03-17T06:52:46.574Z,85.40
2019-03-17T06:55:16.769Z,85.47
2019-03-17T06:57:45.727Z,84.61
2019-03-17T07:00:14.686Z,85.31
2019-03-17T07:02:43.270Z,85.26
2019-03-17T07:05:12.174Z,85.42
2019-03-17T07:07:44.273Z,86.22
2019-03-17T07:10:11.814Z,86.53
2019-03-17T07:12:40.280Z,86.36
2019-03-17T07:15:12.457Z,86.13
2019-03-17T07:17:41.016Z,85.86
2019-03-17T07:20:11.841Z,85.13
2019-03-17T07:22:40.390Z,86.08
2019-03-17T07:25:09.673Z,86.45
2019-03-17T07:27:39.660Z,86.01
2019-03-17T07:30:12.065Z,85.60
2019-03-17T07:32:40.501Z,86.25
2019-03-17T07:35:09.164Z,86.10
2019-03-17T07:37:37.681Z,86.12
2019-03-17T07:40:14.780Z,86.15
2019-03-17T07:42:43.229Z,85.77
2019-03-17T07:45:12.558Z,86.70
2019-03-17T07:47:41.014Z,86.88
2019-03-17T07:50:11.677Z,86.53
2019-03-17T07:52:40.202Z,86.40
2019-03-17T07:55:09.818Z,86.51
2019-03-17T07:57:38.296Z,86.54
2019-03-17T08:00:10.695Z,86.63
2019-03-17T08:02:39.249Z,86.50
2019-03-17T08:05:12.431Z,86.17
2019-03-17T08:07:40.911Z,86.16
2019-03-17T08:10:14.320Z,85.41
2019-03-17T08:12:44.565Z,85.80
2019-03-17T08:15:14.865Z,85.62
2019-03-17T08:17:43.690Z,86.26
2019-03-17T08:20:12.785Z,85.41
2019-03-17T08:22:42.902Z,85.64
2019-03-17T08:25:12.997Z,85.45
2019-03-17T08:27:41.557Z,85.65
2019-03-17T08:30:16.324Z,85.60
2019-03-17T08:32:44.975Z,85.36
2019-03-17T08:35:13.701Z,85.51
2019-03-17T08:37:42.175Z,85.51
2019-03-17T08:40:17.296Z,84.65
2019-03-17T08:42:46.047Z,84.44
2019-03-17T08:45:15.393Z,83.99
2019-03-17T08:47:56.656Z,84.41
2019-03-17T08:50:17.279Z,83.17
2019-03-17T08:52:45.829Z,84.36
2019-03-17T08:55:14.480Z,83.89
2019-03-17T08:57:42.979Z,84.05
2019-03-17T09:00:16.818Z,84.51
2019-03-17T09:02:45.505Z,84.03
2019-03-17T09:05:14.078Z,84.03
2019-03-17T09:07:42.676Z,84.21
2019-03-17T09:10:12.926Z,83.84
2019-03-17T09:12:41.478Z,83.84
2019-03-17T09:15:10.430Z,84.07
2019-03-17T09:17:38.907Z,83.37
2019-03-17T09:20:12.387Z,83.61
2019-03-17T09:22:40.875Z,83.62
2019-03-17T09:25:11.109Z,82.99
2019-03-17T09:27:39.787Z,82.82
2019-03-17T09:30:11.358Z,82.63
2019-03-17T09:32:40.188Z,82.50
2019-03-17T09:35:10.046Z,82.77
2019-03-17T09:37:38.573Z,82.38
2019-03-17T09:40:13.081Z,82.61
2019-03-17T09:42:41.617Z,81.66
2019-03-17T09:45:15.226Z,81.39
2019-03-17T09:47:43.819Z,81.64
2019-03-17T09:50:22.511Z,80.99
2019-03-17T09:52:51.118Z,81.22
2019-03-17T09:55:19.803Z,81.23
2019-03-17T09:57:48.244Z,80.67
2019-03-17T10:00:17.990Z,80.43
2019-03-17T10:02:46.915Z,79.18
2019-03-17T10:05:15.623Z,78.88
2019-03-17T10:07:44.090Z,79.72
2019-03-17T10:10:18.475Z,78.54
2019-03-17T10:12:52.996Z,77.31
2019-03-17T10:15:21.764Z,77.53
2019-03-17T10:17:50.476Z,78.04
2019-03-17T10:20:19.856Z,78.04
2019-03-17T10:22:48.322Z,78.46
2019-03-17T10:25:17.048Z,77.87
2019-03-17T10:27:49.103Z,78.27
2019-03-17T10:30:22.000Z,76.69
2019-03-17T10:32:50.469Z,76.46
2019-03-17T10:35:19.128Z,76.76
2019-03-17T10:37:56.576Z,77.42
2019-03-17T10:40:26.624Z,76.59
2019-03-17T10:42:55.249Z,76.63
2019-03-17T10:45:23.935Z,76.05
2019-03-17T10:47:54.528Z,77.21
2019-03-17T10:50:24.777Z,76.21
2019-03-17T10:52:53.352Z,75.65
2019-03-17T10:55:21.908Z,74.58
2019-03-17T10:57:50.371Z,72.65
2019-03-17T11:00:24.933Z,73.41
2019-03-17T11:02:53.396Z,71.99
2019-03-17T11:05:22.072Z,72.14
2019-03-17T11:07:52.931Z,71.31
2019-03-17T11:10:21.804Z,70.31
2019-03-17T11:12:50.299Z,71.31
2019-03-17T11:15:22.441Z,71.27
2019-03-17T11:17:51.051Z,69.88
2019-03-17T11:20:19.885Z,69.80
2019-03-17T11:22:48.409Z,69.44
2019-03-17T11:25:18.050Z,69.36
2019-03-17T11:27:46.607Z,68.99
2019-03-17T11:30:19.796Z,67.79
2019-03-17T11:32:52.227Z,70.09
2019-03-17T11:35:22.396Z,68.71
2019-03-17T11:37:50.873Z,67.51
2019-03-17T11:40:21.290Z,68.06
2019-03-17T11:42:50.432Z,67.35
2019-03-17T11:45:19.461Z,66.64
2019-03-17T11:47:48.098Z,67.06
2019-03-17T11:50:18.834Z,66.56
2019-03-17T11:52:47.424Z,66.44
2019-03-17T11:55:16.205Z,67.74
2019-03-17T11:57:44.916Z,67.96
2019-03-17T12:00:21.117Z,70.12
2019-03-17T12:02:57.034Z,70.44
2019-03-17T12:05:30.156Z,72.84
2019-03-17T12:08:00.442Z,71.05
2019-03-17T12:10:31.562Z,70.23
2019-03-17T12:13:00.054Z,70.69
2019-03-17T12:15:33.110Z,70.96
2019-03-17T12:18:01.676Z,69.99
2019-03-17T12:20:30.272Z,69.22
2019-03-17T12:22:58.895Z,71.15
2019-03-17T12:25:27.372Z,73.34
2019-03-17T12:27:55.927Z,74.24
2019-03-17T12:30:27.709Z,74.53
2019-03-17T12:32:56.357Z,75.83
2019-03-17T12:35:24.934Z,76.35
2019-03-17T12:37:53.561Z,75.97
2019-03-17T12:40:22.302Z,75.83
2019-03-17T12:42:50.856Z,76.56
2019-03-17T12:45:19.523Z,76.51
2019-03-17T12:47:48.072Z,75.48
2019-03-17T12:50:18.338Z,76.71
2019-03-17T12:52:46.936Z,77.74
2019-03-17T12:55:16.869Z,80.19
2019-03-17T12:57:45.438Z,81.99
2019-03-17T13:00:19.710Z,81.68
2019-03-17T13:02:48.242Z,80.99
2019-03-17T13:05:16.924Z,78.73
2019-03-17T13:07:45.380Z,75.58
2019-03-17T13:10:18.876Z,76.69
2019-03-17T13:12:47.400Z,77.24
2019-03-17T13:15:16.126Z,76.77
2019-03-17T13:17:44.922Z,75.15
2019-03-17T13:20:15.225Z,73.75
2019-03-17T13:22:43.734Z,70.94
2019-03-17T13:25:30.524Z,71.62
2019-03-17T13:27:58.988Z,71.86
2019-03-17T13:30:29.106Z,69.14
2019-03-17T13:32:57.592Z,66.03
2019-03-17T13:35:32.939Z,66.51
2019-03-17T13:38:01.176Z,66.40
2019-03-17T13:40:30.272Z,67.62
2019-03-17T13:42:58.842Z,66.95
2019-03-17T13:45:28.199Z,68.69
2019-03-17T13:47:57.023Z,69.40
2019-03-17T13:50:25.568Z,68.04
2019-03-17T13:52:54.034Z,66.11
2019-03-17T13:55:24.084Z,65.46
2019-03-17T13:58:06.629Z,65.37
2019-03-17T14:00:35.475Z,64.94
2019-03-17T14:03:04.067Z,65.09
2019-03-17T14:05:35.148Z,64.49
2019-03-17T14:08:03.803Z,66.52
2019-03-17T14:10:41.115Z,66.24
2019-03-17T14:13:02.612Z,65.73
2019-03-17T14:15:31.150Z,66.77
2019-03-17T14:18:02.569Z,67.22
2019-03-17T14:20:33.783Z,65.38
2019-03-17T14:23:02.275Z,66.20
2019-03-17T14:25:38.173Z,65.29
2019-03-17T14:28:08.341Z,67.61
2019-03-17T14:30:36.793Z,69.14
2019-03-17T14:33:06.845Z,69.53
2019-03-17T14:35:35.303Z,68.99
2019-03-17T14:38:03.831Z,68.75
2019-03-17T14:40:33.933Z,69.04
2019-03-17T14:43:02.394Z,69.92
2019-03-17T14:45:30.867Z,69.25
2019-03-17T14:48:00.877Z,68.90
2019-03-17T14:50:29.398Z,68.02
2019-03-17T14:53:00.592Z,68.75
2019-03-17T14:55:28.105Z,68.94
2019-03-17T14:57:56.593Z,69.20
2019-03-17T15:00:25.381Z,71.89
2019-03-17T15:02:53.929Z,73.51
2019-03-17T15:05:25.157Z,72.92
2019-03-17T15:07:52.771Z,72.69
2019-03-17T15:10:23.580Z,72.34
2019-03-17T15:12:54.954Z,70.13
2019-03-17T15:15:26.501Z,69.95
2019-03-17T15:17:54.983Z,70.18
2019-03-17T15:20:27.315Z,69.45
2019-03-17T15:22:55.844Z,69.18
2019-03-17T15:25:24.407Z,68.18
2019-03-17T15:27:53.183Z,69.59
2019-03-17T15:30:29.595Z,68.15
2019-03-17T15:32:58.368Z,67.67
2019-03-17T15:35:27.275Z,68.00
2019-03-17T15:37:58.552Z,67.53
2019-03-17T15:40:27.023Z,67.48
2019-03-17T15:42:55.574Z,66.96
2019-03-17T15:45:24.593Z,66.65
2019-03-17T15:47:53.063Z,66.55
2019-03-17T15:50:26.633Z,67.16
2019-03-17T15:52:55.318Z,66.47
2019-03-17T15:55:25.404Z,66.72
2019-03-17T15:57:53.946Z,67.25
2019-03-17T16:00:26.346Z,68.46
2019-03-17T16:02:54.923Z,68.11
2019-03-17T16:05:23.802Z,68.36
2019-03-17T16:07:52.367Z,68.69
2019-03-17T16:10:22.030Z,68.81
2019-03-17T16:12:50.663Z,68.99
2019-03-17T16:15:19.332Z,69.64
2019-03-17T16:17:48.018Z,69.15
2019-03-17T16:20:23.244Z,68.34
2019-03-17T16:22:51.700Z,68.07
2019-03-17T16:25:31.884Z,68.39
2019-03-17T16:28:00.440Z,70.97
2019-03-17T16:30:31.013Z,75.76
2019-03-17T16:32:59.683Z,77.30
2019-03-17T16:35:30.981Z,77.65
2019-03-17T16:37:59.534Z,78.50
2019-03-17T16:40:29.686Z,78.42
2019-03-17T16:42:58.272Z,78.09
2019-03-17T16:45:27.217Z,78.26
2019-03-17T16:47:58.995Z,78.86
2019-03-17T16:50:27.633Z,78.87
2019-03-17T16:52:56.063Z,78.89
2019-03-17T16:55:26.538Z,78.86
2019-03-17T16:57:54.844Z,77.97
2019-03-17T17:00:25.228Z,78.18
2019-03-17T17:02:53.849Z,77.96
2019-03-17T17:05:23.259Z,77.20
2019-03-17T17:07:52.091Z,76.80
2019-03-17T17:10:30.532Z,76.42
2019-03-17T17:12:59.311Z,76.23
2019-03-17T17:15:34.503Z,77.02
2019-03-17T17:18:04.516Z,75.84
2019-03-17T17:20:34.119Z,75.74
2019-03-17T17:23:02.648Z,76.18
2019-03-17T17:25:33.702Z,75.80
2019-03-17T17:28:02.259Z,74.83
2019-03-17T17:30:30.828Z,75.54
2019-03-17T17:32:59.506Z,74.99
2019-03-17T17:35:28.132Z,73.77
2019-03-17T17:37:56.660Z,74.42
2019-03-17T17:40:25.967Z,73.58
2019-03-17T17:42:54.493Z,73.87
2019-03-17T17:45:24.124Z,74.39
2019-03-17T17:47:52.665Z,73.95
2019-03-17T17:50:26.281Z,72.98
2019-03-17T17:52:54.812Z,72.96
2019-03-17T17:55:23.441Z,71.99
2019-03-17T17:57:53.020Z,72.21
2019-03-17T18:00:39.853Z,72.46
2019-03-17T18:03:08.325Z,71.56
2019-03-17T18:05:36.809Z,71.35
2019-03-17T18:08:05.720Z,71.06
2019-03-17T18:10:34.262Z,71.52
2019-03-17T18:13:02.738Z,69.78
2019-03-17T18:15:34.426Z,72.19
2019-03-17T18:18:02.964Z,72.28
2019-03-17T18:20:31.869Z,72.59
2019-03-17T18:23:00.363Z,71.62
2019-03-17T18:25:29.306Z,69.10
2019-03-17T18:27:57.794Z,69.60
2019-03-17T18:30:27.964Z,70.84
2019-03-17T18:32:56.896Z,70.25
2019-03-17T18:35:25.489Z,70.47
2019-03-17T18:37:54.050Z,70.02
2019-03-17T18:40:23.160Z,69.25
2019-03-17T18:42:54.105Z,67.42
2019-03-17T18:45:30.195Z,68.60
2019-03-17T18:47:58.759Z,65.53
2019-03-17T18:50:28.937Z,67.36
2019-03-17T18:52:57.470Z,67.67
2019-03-17T18:55:25.930Z,69.10
2019-03-17T18:57:54.466Z,68.95
2019-03-17T19:00:24.377Z,68.46
2019-03-17T19:02:52.932Z,68.18
2019-03-17T19:05:21.585Z,68.25
2019-03-17T19:07:50.134Z,67.37
2019-03-17T19:10:21.058Z,67.21
2019-03-17T19:12:51.148Z,65.92
2019-03-17T19:15:25.495Z,66.96
2019-03-17T19:17:54.049Z,67.49
2019-03-17T19:20:25.372Z,67.02
2019-03-17T19:22:53.903Z,66.84
2019-03-17T19:25:23.517Z,66.89
2019-03-17T19:27:51.988Z,66.92
2019-03-17T19:30:21.435Z,67.54
2019-03-17T19:32:49.975Z,67.87
2019-03-17T19:35:18.664Z,66.99
2019-03-17T19:37:49.809Z,66.35
2019-03-17T19:40:23.236Z,67.31
2019-03-17T19:42:58.747Z,65.41
2019-03-17T19:45:22.382Z,65.91
2019-03-17T19:47:50.849Z,67.01
2019-03-17T19:50:22.960Z,67.84
2019-03-17T19:52:51.497Z,66.45
2019-03-17T19:55:20.076Z,67.35
2019-03-17T19:57:48.787Z,67.78
2019-03-17T20:00:18.255Z,67.70
2019-03-17T20:02:49.334Z,66.87
2019-03-17T20:05:17.974Z,68.80
2019-03-17T20:07:46.521Z,68.00
2019-03-17T20:10:21.277Z,68.57
2019-03-17T20:12:51.647Z,69.06
2019-03-17T20:15:20.274Z,68.90
2019-03-17T20:17:50.305Z,69.25
2019-03-17T20:20:19.011Z,68.99
2019-03-17T20:22:47.531Z,69.43
2019-03-17T20:25:16.169Z,69.82
2019-03-17T20:27:44.745Z,69.81
2019-03-17T20:30:19.736Z,69.93
2019-03-17T20:32:48.307Z,69.86
2019-03-17T20:35:16.944Z,69.75
2019-03-17T20:37:45.526Z,70.22
2019-03-17T20:40:15.166Z,70.18
2019-03-17T20:42:43.764Z,70.61
2019-03-17T20:45:13.511Z,70.41
2019-03-17T20:47:42.034Z,70.32
2019-03-17T20:50:20.130Z,69.86
2019-03-17T20:52:49.531Z,70.50
2019-03-17T20:55:18.150Z,70.55
2019-03-17T20:57:46.754Z,70.86
2019-03-17T21:00:16.500Z,70.67
2019-03-17T21:02:45.037Z,70.41
2019-03-17T21:05:13.891Z,70.65
2019-03-17T21:07:42.902Z,70.22
2019-03-17T21:10:15.331Z,70.72
2019-03-17T21:12:43.850Z,70.31
2019-03-17T21:15:13.533Z,69.78
2019-03-17T21:17:42.275Z,70.03
2019-03-17T21:20:13.080Z,69.67
2019-03-17T21:22:41.693Z,70.03
2019-03-17T21:25:10.783Z,69.76
2019-03-17T21:27:39.326Z,70.13
2019-03-17T21:30:19.071Z,70.64
2019-03-17T21:32:47.712Z,69.78
2019-03-17T21:35:16.371Z,70.12
2019-03-17T21:37:44.930Z,70.07
2019-03-17T21:40:13.711Z,70.10
2019-03-17T21:42:42.169Z,69.88
2019-03-17T21:45:14.208Z,70.71
2019-03-17T21:47:42.763Z,69.95
2019-03-17T21:50:15.806Z,70.51
2019-03-17T21:52:44.498Z,70.11
2019-03-17T21:55:14.043Z,70.22
2019-03-17T21:57:42.642Z,70.53
2019-03-17T22:00:14.199Z,69.91
2019-03-17T22:02:42.943Z,69.97
2019-03-17T22:05:15.817Z,69.59
2019-03-17T22:07:50.103Z,69.98
2019-03-17T22:10:16.140Z,69.82
2019-03-17T22:12:44.753Z,69.59
2019-03-17T22:15:14.296Z,70.17
2019-03-17T22:17:42.837Z,69.93
2019-03-17T22:20:13.106Z,70.26
2019-03-17T22:22:43.821Z,71.05
2019-03-17T22:25:13.345Z,69.75
2019-03-17T22:27:41.961Z,70.28
2019-03-17T22:30:13.525Z,70.00
2019-03-17T22:32:42.008Z,70.27
2019-03-17T22:35:10.967Z,70.28
2019-03-17T22:37:39.495Z,70.75
2019-03-17T22:40:12.523Z,70.82
2019-03-17T22:42:43.363Z,70.74
2019-03-17T22:45:14.630Z,70.86
2019-03-17T22:47:46.087Z,71.63
2019-03-17T22:50:16.670Z,70.80
2019-03-17T22:52:45.191Z,71.70
2019-03-17T22:55:14.566Z,71.75
2019-03-17T22:57:43.388Z,71.76
2019-03-17T23:00:33.518Z,71.88
2019-03-17T23:03:02.003Z,71.68
2019-03-17T23:05:30.520Z,71.93
2019-03-17T23:07:59.055Z,72.34
2019-03-17T23:10:29.238Z,72.25
2019-03-17T23:13:01.907Z,71.90
2019-03-17T23:15:30.391Z,72.11
2019-03-17T23:17:59.686Z,71.98
2019-03-17T23:20:28.406Z,72.03
2019-03-17T23:22:56.887Z,71.79
2019-03-17T23:25:26.653Z,71.80
2019-03-17T23:27:55.079Z,71.56
2019-03-17T23:30:23.855Z,71.19
2019-03-17T23:32:52.728Z,72.06
2019-03-17T23:35:21.399Z,71.13
2019-03-17T23:37:49.995Z,71.25
2019-03-17T23:40:18.958Z,71.54
2019-03-17T23:42:49.089Z,71.23
2019-03-17T23:45:17.775Z,71.71
2019-03-17T23:47:46.325Z,73.56
2019-03-17T23:50:15.269Z,74.00
2019-03-17T23:52:43.881Z,75.42
2019-03-17T23:55:14.285Z,75.77
2019-03-17T23:57:43.124Z,76.98
